Springfield, Ohio
Current Conditions -  °F | °C
As of 7:56 AM on Friday 28 Nov 2014 (Local Time) from KSGH Reporting Station
Haze Haze  
Wind Chill: 20°   Ceiling: 10000
Heat Index: 20°   Visibility: 6mi
Dew Point: 17°   Wind: 3mph
Humidity: 88%   Direction: 180°S
Pressure: 30.38"   Gusts: NA
Location:  39.93°N, 83.81°W
Report Text: KSGH 281256Z AUTO 18003KT 6SM BR BKN100 M07/M08 A3038 RMK AO2 T10661083 BKN V SCT SLP302 $
Loading
Personal Weather Stations






























Interactive Weather Map New forecast layout! Learn more

10-Day Weather Forecast

Advertisements
Track Severe Weather on mobile